EGGD/BRS METAR and TAF weather

Enter ICAO airport designator
Station Type Date Time Source
EGGD METAR 2018/04/20 08:50 UTC NOAA

EGGD 200850Z AUTO 22004KT 190V250 0050 R27/0125 FG VV/// 10/10 Q1025


Station Type Date Time Source
EGGD Decoded METAR 2018/04/20 08:50 UTC NOAA

Bristol / Lulsgate , United Kingdom (EGGD) 51-23N 002-43W
Apr 20, 2018 - 04:50 AM EDT / 2018.04.20 0850 UTC
Wind: from the SW (220 degrees) at 5 MPH (4 KT) (direction variable):0
Visibility: less than 1 mile:0
Sky conditions: obscured
Weather: fog
Temperature: 50 F (10 C)
Dew Point: 50 F (10 C)
Relative Humidity: 100%
Pressure (altimeter): 30.27 in. Hg (1025 hPa)
ob: EGGD 200850Z AUTO 22004KT 190V250 0050 R27/0125 FG VV/// 10/10 Q1025
cycle: 9

Station Type Date Time Source
EGGD TAF 2018/04/20 06:15 UTC NOAA

TAF EGGD 200501Z 2006/2106 26008KT 0100 FG BKN000 PROB30
TEMPO 2006/2009 2000 BR SCT003
BECMG 2009/2012 9999 NSW FEW020 PROB30
TEMPO 2100/2106 6000


Example: see airport list